ADDS METAR Data INFO
IDs: Format: Raw Decoded Include TAF

Data at: 0112 UTC 21 Oct 2017

KARG 210056Z AUTO 14006KT 9SM CLR 18/12 A3009 RMK AO2 SLP188 T01830117
KARG 202356Z AUTO 14008KT 10SM CLR 20/12 A3008 RMK AO2 SLP187 T02000122 10250 20200 56011
KARG 202342Z AUTO 13009KT 7SM CLR 21/12 A3008 RMK AO2
KARG 202330Z AUTO 12008KT 2SM HZ CLR 21/13 A3008 RMK AO2
KARG 202256Z AUTO 13006KT 9SM CLR 22/13 A3008 RMK AO2 SLP187 T02170128
KARG 202156Z AUTO 15007KT 10SM CLR 24/13 A3010 RMK AO2 SLP192 T02390128
KARG 202056Z AUTO 17008KT 10SM CLR 24/13 A3011 RMK AO2 SLP198 T02390128 56023
KARG 201956Z AUTO 19003KT 7SM CLR 24/13 A3012 RMK AO2 SLP201 T02440128
KARG 201856Z AUTO 18006KT 10SM CLR 24/14 A3014 RMK AO2 SLP207 T02440139
KARG 201756Z AUTO 19005KT 10SM CLR 22/14 A3018 RMK AO2 SLP221 6//// T02220139 58018
KARG 201656Z AUTO 17008KT 10SM CLR 20/13 A3021 RMK AO2 SLP231 T02000133
KARG 201556Z AUTO 19007KT 10SM CLR 19/13 A3023 RMK AO2 SLP238 T01940133 TSNO
KARG 201456Z AUTO 11004KT 10SM 17/13 A3024 RMK AO2 SLP239 6//// T01720128 TSNO
KARG 201356Z AUTO 11/10 RMK AO2 SLPNO T01110100 PWINO RVRNO $
KARG 201256Z AUTO 04004KT 3SM BR CLR 09/08 A3023 RMK AO2 SLP237 T00890083
KARG 201226Z AUTO 00000KT 3SM BR CLR 08/07 A3022 RMK AO2
KARG 201214Z AUTO 03003KT 2 1/2SM BR CLR 08/08 A3022 RMK AO2
KARG 201156Z AUTO 00000KT 4SM BR CLR 08/07 A3022 RMK AO2 SLP236 7//// T00780067 10117 20072 51009
KARG 201056Z AUTO 00000KT 4SM BR CLR 08/07 A3022 RMK AO2 SLP233 T00830072
KARG 201043Z AUTO 00000KT 2 1/2SM BR CLR 08/07 A3021 RMK AO2 VIS 1 3/4V4
KARG 201013Z AUTO 00000KT 1 3/4SM BR CLR 08/07 A3021 RMK AO2 VIS 1 1/4V4
KARG 200956Z AUTO 00000KT 5SM BR CLR 09/08 A3021 RMK AO2 SLP230 T00890083
KARG 200856Z AUTO 00000KT 4SM BR CLR 10/09 A3020 RMK AO2 SLP226 T01000094 50001
KARG 200845Z AUTO 00000KT 1 3/4SM BR CLR 10/09 A3020 RMK AO2 VIS 1/2V5
KARG 200756Z AUTO 00000KT 7SM CLR 09/08 A3020 RMK AO2 SLP227 T00940078 TSNO
KARG 200656Z AUTO 00000KT 6SM BR CLR 11/08 A3020 RMK AO2 SLP226 T01060083
KARG 200556Z AUTO 22003KT 7SM CLR 13/09 A3019 RMK AO2 SLP224 T01280094 10183 20117 402670083 58001
KARG 200456Z AUTO 16004KT 9SM CLR 13/09 A3020 RMK AO2 SLP227 T01280094
KARG 200356Z AUTO 16005KT 8SM CLR 13/10 A3020 RMK AO2 SLP228 T01330100
KARG 200256Z AUTO 15004KT 7SM CLR 14/10 A3020 RMK AO2 SLP226 T01440100 53009
KARG 200156Z AUTO 15005KT 7SM CLR 15/10 A3018 RMK AO2 SLPNO T01500100
KARG 200056Z AUTO 17005KT 9SM CLR 17/10 A3018 RMK AO2 SLP220 T01720100
KARG 192356Z AUTO 17006KT 7SM CLR 18/10 A3017 RMK AO2 SLP217 T01830100 10267 20178 53001
KARG 192256Z AUTO 18006KT 10SM CLR 22/11 A3017 RMK AO2 SLP216 T02220106
KARG 192156Z AUTO 19008KT 10SM CLR 26/11 A3016 RMK AO2 SLP214 T02560106
KARG 192056Z AUTO 19006KT 10SM CLR 26/11 A3017 RMK AO2 SLP215 T02610106 56018
KARG 191956Z AUTO 15009KT 10SM CLR 26/11 A3017 RMK AO2 SLP217 T02610106
KARG 191856Z AUTO 18006KT 10SM CLR 26/11 A3019 RMK AO2 SLP223 T02560106
KARG 191756Z AUTO 18007KT 10SM CLR 24/12 A3022 RMK AO2 SLP233 6//// T02440117 58012
KARG 191656Z AUTO 20008KT 10SM CLR 22/12 A3024 RMK AO2 SLP242 T02220117
KARG 191556Z AUTO 19007KT 10SM CLR 20/11 A3026 RMK AO2 SLP246 T02000111
KARG 191456Z AUTO 18008KT 10SM CLR 17/11 A3026 RMK AO2 SLP246 6//// T01670106